sensor_id;sensor_type;location;lat;lon;timestamp;pressure;altitude;pressure_sealevel;temperature;humidity
2875;BME280;1445;52.600;13.328;2023-12-20T00:02:22;78075.03;;;-145.99;100.00
2875;BME280;1445;52.600;13.328;2023-12-20T00:04:47;78075.03;;;-145.99;100.00
2875;BME280;1445;52.600;13.328;2023-12-20T00:07:13;78066.63;;;-145.99;100.00
2875;BME280;1445;52.600;13.328;2023-12-20T00:09:38;78068.72;;;-145.99;100.00
2875;BME280;1445;52.600;13.328;2023-12-20T00:12:03;78072.91;;;-145.99;100.00
2875;BME280;1445;52.600;13.328;2023-12-20T00:14:28;78068.72;;;-145.99;100.00
2875;BME280;1445;52.600;13.328;2023-12-20T00:16:54;78068.72;;;-145.99;100.00
2875;BME280;1445;52.600;13.328;2023-12-20T00:19:19;78058.22;;;-145.99;100.00
2875;BME280;1445;52.600;13.328;2023-12-20T00:21:45;78060.31;;;-145.99;100.00
2875;BME280;1445;52.600;13.328;2023-12-20T00:24:10;78062.41;;;-145.99;100.00
2875;BME280;1445;52.600;13.328;2023-12-20T00:26:35;78051.91;;;-145.99;100.00
2875;BME280;1445;52.600;13.328;2023-12-20T00:29:01;78054.03;;;-145.99;100.00
2875;BME280;1445;52.600;13.328;2023-12-20T00:31:26;78051.91;;;-145.99;100.00
2875;BME280;1445;52.600;13.328;2023-12-20T00:33:51;78058.22;;;-145.99;100.00
2875;BME280;1445;52.600;13.328;2023-12-20T00:36:16;78051.91;;;-145.99;100.00
2875;BME280;1445;52.600;13.328;2023-12-20T00:38:42;78058.22;;;-145.99;100.00
2875;BME280;1445;52.600;13.328;2023-12-20T00:41:07;78054.03;;;-145.99;100.00
2875;BME280;1445;52.600;13.328;2023-12-20T00:43:32;78049.81;;;-145.99;100.00
2875;BME280;1445;52.600;13.328;2023-12-20T00:45:58;78049.81;;;-145.99;100.00
2875;BME280;1445;52.600;13.328;2023-12-20T00:48:25;78051.91;;;-145.99;100.00
2875;BME280;1445;52.600;13.328;2023-12-20T00:50:52;78045.63;;;-145.99;100.00
2875;BME280;1445;52.600;13.328;2023-12-20T00:53:17;78058.22;;;-145.99;100.00
2875;BME280;1445;52.600;13.328;2023-12-20T00:55:42;78054.03;;;-145.99;100.00
2875;BME280;1445;52.600;13.328;2023-12-20T00:58:09;78060.31;;;-145.99;100.00
2875;BME280;1445;52.600;13.328;2023-12-20T01:00:34;78051.91;;;-145.99;100.00
2875;BME280;1445;52.600;13.328;2023-12-20T01:02:59;78060.31;;;-145.99;100.00
2875;BME280;1445;52.600;13.328;2023-12-20T01:05:25;78054.03;;;-145.99;100.00
2875;BME280;1445;52.600;13.328;2023-12-20T01:07:50;78054.03;;;-145.99;100.00
2875;BME280;1445;52.600;13.328;2023-12-20T01:10:15;78062.41;;;-145.99;100.00
2875;BME280;1445;52.600;13.328;2023-12-20T01:12:40;78068.72;;;-145.99;100.00
2875;BME280;1445;52.600;13.328;2023-12-20T01:15:06;78070.81;;;-145.99;100.00
2875;BME280;1445;52.600;13.328;2023-12-20T01:17:31;78066.63;;;-145.99;100.00
2875;BME280;1445;52.600;13.328;2023-12-20T01:19:56;78070.81;;;-145.99;100.00
2875;BME280;1445;52.600;13.328;2023-12-20T01:22:21;78064.53;;;-145.99;100.00
2875;BME280;1445;52.600;13.328;2023-12-20T01:24:48;78058.22;;;-145.99;100.00
2875;BME280;1445;52.600;13.328;2023-12-20T01:27:13;78054.03;;;-145.99;100.00
2875;BME280;1445;52.600;13.328;2023-12-20T01:29:38;78058.22;;;-145.99;100.00
2875;BME280;1445;52.600;13.328;2023-12-20T01:32:04;78064.53;;;-145.99;100.00
2875;BME280;1445;52.600;13.328;2023-12-20T01:34:29;78066.63;;;-145.99;100.00
2875;BME280;1445;52.600;13.328;2023-12-20T01:36:54;78062.41;;;-145.99;100.00
2875;BME280;1445;52.600;13.328;2023-12-20T01:39:20;78062.41;;;-145.99;100.00
2875;BME280;1445;52.600;13.328;2023-12-20T01:41:45;78051.91;;;-145.99;100.00
2875;BME280;1445;52.600;13.328;2023-12-20T01:44:10;78062.41;;;-145.99;100.00
2875;BME280;1445;52.600;13.328;2023-12-20T01:46:36;78060.31;;;-145.99;100.00
2875;BME280;1445;52.600;13.328;2023-12-20T01:49:01;78060.31;;;-145.99;100.00
2875;BME280;1445;52.600;13.328;2023-12-20T01:51:27;78060.31;;;-145.99;100.00
2875;BME280;1445;52.600;13.328;2023-12-20T01:53:53;78054.03;;;-145.99;100.00
2875;BME280;1445;52.600;13.328;2023-12-20T01:56:20;78064.53;;;-145.99;100.00
2875;BME280;1445;52.600;13.328;2023-12-20T01:58:46;78058.22;;;-145.99;100.00
2875;BME280;1445;52.600;13.328;2023-12-20T02:01:12;78060.31;;;-145.99;100.00
2875;BME280;1445;52.600;13.328;2023-12-20T02:03:38;78064.53;;;-145.99;100.00
2875;BME280;1445;52.600;13.328;2023-12-20T02:06:04;78064.53;;;-145.99;100.00
2875;BME280;1445;52.600;13.328;2023-12-20T02:08:30;78062.41;;;-145.99;100.00
2875;BME280;1445;52.600;13.328;2023-12-20T02:10:55;78049.81;;;-145.99;100.00
2875;BME280;1445;52.600;13.328;2023-12-20T02:13:21;78060.31;;;-145.99;100.00
2875;BME280;1445;52.600;13.328;2023-12-20T02:15:46;78056.13;;;-145.99;100.00
2875;BME280;1445;52.600;13.328;2023-12-20T02:18:11;78049.81;;;-145.99;100.00
2875;BME280;1445;52.600;13.328;2023-12-20T02:20:40;78058.22;;;-145.99;100.00
2875;BME280;1445;52.600;13.328;2023-12-20T02:23:05;78064.53;;;-145.99;100.00
2875;BME280;1445;52.600;13.328;2023-12-20T02:25:31;78060.31;;;-145.99;100.00
2875;BME280;1445;52.600;13.328;2023-12-20T02:27:56;78072.91;;;-145.99;100.00
2875;BME280;1445;52.600;13.328;2023-12-20T02:30:21;78072.91;;;-145.99;100.00
2875;BME280;1445;52.600;13.328;2023-12-20T02:32:47;78081.31;;;-145.99;100.00
2875;BME280;1445;52.600;13.328;2023-12-20T02:35:12;78081.31;;;-145.99;100.00
2875;BME280;1445;52.600;13.328;2023-12-20T02:37:38;78077.13;;;-145.99;100.00
2875;BME280;1445;52.600;13.328;2023-12-20T02:40:03;78083.44;;;-145.99;100.00
2875;BME280;1445;52.600;13.328;2023-12-20T02:42:29;78081.31;;;-145.99;100.00
2875;BME280;1445;52.600;13.328;2023-12-20T02:44:54;78075.03;;;-145.99;100.00
2875;BME280;1445;52.600;13.328;2023-12-20T02:47:20;78075.03;;;-145.99;100.00
2875;BME280;1445;52.600;13.328;2023-12-20T02:49:45;78079.22;;;-145.99;100.00
2875;BME280;1445;52.600;13.328;2023-12-20T02:52:10;78083.44;;;-145.99;100.00
2875;BME280;1445;52.600;13.328;2023-12-20T02:54:35;78085.53;;;-145.99;100.00
2875;BME280;1445;52.600;13.328;2023-12-20T02:57:01;78081.31;;;-145.99;100.00
2875;BME280;1445;52.600;13.328;2023-12-20T02:59:26;78085.53;;;-145.99;100.00
2875;BME280;1445;52.600;13.328;2023-12-20T03:01:51;78091.81;;;-145.99;100.00
2875;BME280;1445;52.600;13.328;2023-12-20T03:04:16;78083.44;;;-145.99;100.00
2875;BME280;1445;52.600;13.328;2023-12-20T03:06:42;78096.03;;;-145.99;100.00
2875;BME280;1445;52.600;13.328;2023-12-20T03:09:07;78100.22;;;-145.99;100.00
2875;BME280;1445;52.600;13.328;2023-12-20T03:11:33;78098.13;;;-145.99;100.00
2875;BME280;1445;52.600;13.328;2023-12-20T03:13:58;78100.22;;;-145.99;100.00
2875;BME280;1445;52.600;13.328;2023-12-20T03:16:23;78093.94;;;-145.99;100.00
2875;BME280;1445;52.600;13.328;2023-12-20T03:18:48;78100.22;;;-145.99;100.00
2875;BME280;1445;52.600;13.328;2023-12-20T03:21:14;78108.63;;;-145.99;100.00
2875;BME280;1445;52.600;13.328;2023-12-20T03:23:40;78123.34;;;-145.99;100.00
2875;BME280;1445;52.600;13.328;2023-12-20T03:26:09;78127.53;;;-145.99;100.00
2875;BME280;1445;52.600;13.328;2023-12-20T03:28:35;78114.94;;;-145.99;100.00
2875;BME280;1445;52.600;13.328;2023-12-20T03:31:00;78121.25;;;-145.99;100.00
2875;BME280;1445;52.600;13.328;2023-12-20T03:33:27;78114.94;;;-145.99;100.00
2875;BME280;1445;52.600;13.328;2023-12-20T03:35:52;78119.13;;;-145.99;100.00
2875;BME280;1445;52.600;13.328;2023-12-20T03:38:17;78127.53;;;-145.99;100.00
2875;BME280;1445;52.600;13.328;2023-12-20T03:40:43;78123.34;;;-145.99;100.00
2875;BME280;1445;52.600;13.328;2023-12-20T03:43:08;78121.25;;;-145.99;100.00
2875;BME280;1445;52.600;13.328;2023-12-20T03:45:33;78117.03;;;-145.99;100.00
2875;BME280;1445;52.600;13.328;2023-12-20T03:47:59;78106.53;;;-145.99;100.00
2875;BME280;1445;52.600;13.328;2023-12-20T03:50:24;78110.72;;;-145.99;100.00
2875;BME280;1445;52.600;13.328;2023-12-20T03:52:49;78108.63;;;-145.99;100.00
2875;BME280;1445;52.600;13.328;2023-12-20T03:55:15;78104.44;;;-145.99;100.00
2875;BME280;1445;52.600;13.328;2023-12-20T03:57:40;78106.53;;;-145.99;100.00
2875;BME280;1445;52.600;13.328;2023-12-20T04:00:07;78098.13;;;-145.99;100.00
2875;BME280;1445;52.600;13.328;2023-12-20T04:02:35;78089.72;;;-145.99;100.00
2875;BME280;1445;52.600;13.328;2023-12-20T04:05:01;78087.63;;;-145.99;100.00
2875;BME280;1445;52.600;13.328;2023-12-20T04:07:26;78089.72;;;-145.99;100.00
2875;BME280;1445;52.600;13.328;2023-12-20T04:09:51;78077.13;;;-145.99;100.00
2875;BME280;1445;52.600;13.328;2023-12-20T04:12:16;78070.81;;;-145.99;100.00
2875;BME280;1445;52.600;13.328;2023-12-20T04:14:41;78075.03;;;-145.99;100.00
2875;BME280;1445;52.600;13.328;2023-12-20T04:17:07;78081.31;;;-145.99;100.00
2875;BME280;1445;52.600;13.328;2023-12-20T04:19:32;78075.03;;;-145.99;100.00
2875;BME280;1445;52.600;13.328;2023-12-20T04:21:57;78087.63;;;-145.99;100.00
2875;BME280;1445;52.600;13.328;2023-12-20T04:24:22;78091.81;;;-145.99;100.00
2875;BME280;1445;52.600;13.328;2023-12-20T04:26:48;78093.94;;;-145.99;100.00
2875;BME280;1445;52.600;13.328;2023-12-20T04:29:13;78089.72;;;-145.99;100.00
2875;BME280;1445;52.600;13.328;2023-12-20T04:31:38;78093.94;;;-145.99;100.00
2875;BME280;1445;52.600;13.328;2023-12-20T04:34:03;78100.22;;;-145.99;100.00
2875;BME280;1445;52.600;13.328;2023-12-20T04:36:29;78106.53;;;-145.99;100.00
2875;BME280;1445;52.600;13.328;2023-12-20T04:38:55;78119.13;;;-145.99;100.00
2875;BME280;1445;52.600;13.328;2023-12-20T04:41:20;78123.34;;;-145.99;100.00
2875;BME280;1445;52.600;13.328;2023-12-20T04:43:45;78127.53;;;-145.99;100.00
2875;BME280;1445;52.600;13.328;2023-12-20T04:46:10;78123.34;;;-145.99;100.00
2875;BME280;1445;52.600;13.328;2023-12-20T04:48:36;78129.63;;;-145.99;100.00
2875;BME280;1445;52.600;13.328;2023-12-20T04:51:01;78129.63;;;-145.99;100.00
2875;BME280;1445;52.600;13.328;2023-12-20T04:53:27;78129.63;;;-145.99;100.00
2875;BME280;1445;52.600;13.328;2023-12-20T04:55:52;78138.03;;;-145.99;100.00
2875;BME280;1445;52.600;13.328;2023-12-20T04:58:18;78129.63;;;-145.99;100.00
2875;BME280;1445;52.600;13.328;2023-12-20T05:00:43;78127.53;;;-145.99;100.00
2875;BME280;1445;52.600;13.328;2023-12-20T05:03:09;78121.25;;;-145.99;100.00
2875;BME280;1445;52.600;13.328;2023-12-20T05:05:34;78123.34;;;-145.99;100.00
2875;BME280;1445;52.600;13.328;2023-12-20T05:08:00;78127.53;;;-145.99;100.00
2875;BME280;1445;52.600;13.328;2023-12-20T05:10:25;78135.94;;;-145.99;100.00
2875;BME280;1445;52.600;13.328;2023-12-20T05:12:52;78144.34;;;-145.99;100.00
2875;BME280;1445;52.600;13.328;2023-12-20T05:15:17;78144.34;;;-145.99;100.00
2875;BME280;1445;52.600;13.328;2023-12-20T05:17:42;78156.94;;;-145.99;100.00
2875;BME280;1445;52.600;13.328;2023-12-20T05:20:08;78161.16;;;-145.99;100.00
2875;BME280;1445;52.600;13.328;2023-12-20T05:22:33;78161.16;;;-145.99;100.00
2875;BME280;1445;52.600;13.328;2023-12-20T05:24:58;78165.34;;;-145.99;100.00
2875;BME280;1445;52.600;13.328;2023-12-20T05:27:23;78169.56;;;-145.99;100.00
2875;BME280;1445;52.600;13.328;2023-12-20T05:29:49;78177.94;;;-145.99;100.00
2875;BME280;1445;52.600;13.328;2023-12-20T05:32:15;78169.56;;;-145.99;100.00
2875;BME280;1445;52.600;13.328;2023-12-20T05:34:40;78177.94;;;-145.99;100.00
2875;BME280;1445;52.600;13.328;2023-12-20T05:37:05;78177.94;;;-145.99;100.00
2875;BME280;1445;52.600;13.328;2023-12-20T05:39:30;78177.94;;;-145.99;100.00
2875;BME280;1445;52.600;13.328;2023-12-20T05:41:56;78148.53;;;-145.99;100.00
2875;BME280;1445;52.600;13.328;2023-12-20T05:44:21;78140.16;;;-145.99;100.00
2875;BME280;1445;52.600;13.328;2023-12-20T05:46:47;78140.16;;;-145.99;100.00
2875;BME280;1445;52.600;13.328;2023-12-20T05:49:12;78142.25;;;-145.99;100.00
2875;BME280;1445;52.600;13.328;2023-12-20T05:51:38;78161.16;;;-145.99;100.00
2875;BME280;1445;52.600;13.328;2023-12-20T05:54:03;78173.75;;;-145.99;100.00
2875;BME280;1445;52.600;13.328;2023-12-20T05:56:29;78182.16;;;-145.99;100.00
2875;BME280;1445;52.600;13.328;2023-12-20T05:58:54;78173.75;;;-145.99;100.00
2875;BME280;1445;52.600;13.328;2023-12-20T06:01:19;78173.75;;;-145.99;100.00
2875;BME280;1445;52.600;13.328;2023-12-20T06:03:45;78175.84;;;-145.99;100.00
2875;BME280;1445;52.600;13.328;2023-12-20T06:06:13;78169.56;;;-145.99;100.00
2875;BME280;1445;52.600;13.328;2023-12-20T06:08:38;78165.34;;;-145.99;100.00
2875;BME280;1445;52.600;13.328;2023-12-20T06:11:04;78163.25;;;-145.99;100.00
2875;BME280;1445;52.600;13.328;2023-12-20T06:13:30;78180.06;;;-145.99;100.00
2875;BME280;1445;52.600;13.328;2023-12-20T06:15:55;78169.56;;;-145.99;100.00
2875;BME280;1445;52.600;13.328;2023-12-20T06:18:21;78173.75;;;-145.99;100.00
2875;BME280;1445;52.600;13.328;2023-12-20T06:20:46;78182.16;;;-145.99;100.00
2875;BME280;1445;52.600;13.328;2023-12-20T06:23:11;78180.06;;;-145.99;100.00
2875;BME280;1445;52.600;13.328;2023-12-20T06:25:36;78182.16;;;-145.99;100.00
2875;BME280;1445;52.600;13.328;2023-12-20T06:28:02;78146.44;;;-145.99;100.00
2875;BME280;1445;52.600;13.328;2023-12-20T06:30:27;78117.03;;;-145.99;100.00
2875;BME280;1445;52.600;13.328;2023-12-20T06:32:53;78133.84;;;-145.99;100.00
2875;BME280;1445;52.600;13.328;2023-12-20T06:35:18;78163.25;;;-145.99;100.00
2875;BME280;1445;52.600;13.328;2023-12-20T06:37:44;78175.84;;;-145.99;100.00
2875;BME280;1445;52.600;13.328;2023-12-20T06:40:10;78171.66;;;-145.99;100.00
2875;BME280;1445;52.600;13.328;2023-12-20T06:42:35;78173.75;;;-145.99;100.00
2875;BME280;1445;52.600;13.328;2023-12-20T06:45:00;78180.06;;;-145.99;100.00
2875;BME280;1445;52.600;13.328;2023-12-20T06:47:26;78161.16;;;-145.99;100.00
2875;BME280;1445;52.600;13.328;2023-12-20T06:49:51;78154.84;;;-145.99;100.00
2875;BME280;1445;52.600;13.328;2023-12-20T06:52:17;78150.66;;;-145.99;100.00
2875;BME280;1445;52.600;13.328;2023-12-20T06:54:42;78144.34;;;-145.99;100.00
2875;BME280;1445;52.600;13.328;2023-12-20T06:57:07;78146.44;;;-145.99;100.00
2875;BME280;1445;52.600;13.328;2023-12-20T06:59:32;78135.94;;;-145.99;100.00
2875;BME280;1445;52.600;13.328;2023-12-20T07:01:58;78127.53;;;-145.99;100.00
2875;BME280;1445;52.600;13.328;2023-12-20T07:04:23;78135.94;;;-145.99;100.00
2875;BME280;1445;52.600;13.328;2023-12-20T07:06:48;78133.84;;;-145.99;100.00
2875;BME280;1445;52.600;13.328;2023-12-20T07:09:17;78135.94;;;-145.99;100.00
2875;BME280;1445;52.600;13.328;2023-12-20T07:11:42;78135.94;;;-145.99;100.00
2875;BME280;1445;52.600;13.328;2023-12-20T07:14:07;78144.34;;;-145.99;100.00
2875;BME280;1445;52.600;13.328;2023-12-20T07:16:32;78131.75;;;-145.99;100.00
2875;BME280;1445;52.600;13.328;2023-12-20T07:18:58;78131.75;;;-145.99;100.00
2875;BME280;1445;52.600;13.328;2023-12-20T07:21:23;78135.94;;;-145.99;100.00
2875;BME280;1445;52.600;13.328;2023-12-20T07:23:48;78123.34;;;-145.99;100.00
2875;BME280;1445;52.600;13.328;2023-12-20T07:26:13;78127.53;;;-145.99;100.00
2875;BME280;1445;52.600;13.328;2023-12-20T07:28:39;78123.34;;;-145.99;100.00
2875;BME280;1445;52.600;13.328;2023-12-20T07:31:05;78114.94;;;-145.99;100.00
2875;BME280;1445;52.600;13.328;2023-12-20T07:33:30;78114.94;;;-145.99;100.00
2875;BME280;1445;52.600;13.328;2023-12-20T07:35:56;78114.94;;;-145.99;100.00
2875;BME280;1445;52.600;13.328;2023-12-20T07:38:21;78108.63;;;-145.99;100.00
2875;BME280;1445;52.600;13.328;2023-12-20T07:40:46;78102.34;;;-145.99;100.00
2875;BME280;1445;52.600;13.328;2023-12-20T07:43:11;78098.13;;;-145.99;100.00
2875;BME280;1445;52.600;13.328;2023-12-20T07:45:37;78106.53;;;-145.99;100.00
2875;BME280;1445;52.600;13.328;2023-12-20T07:48:03;78098.13;;;-145.99;100.00
2875;BME280;1445;52.600;13.328;2023-12-20T07:50:28;78096.03;;;-145.99;100.00
2875;BME280;1445;52.600;13.328;2023-12-20T07:52:53;78091.81;;;-145.99;100.00
2875;BME280;1445;52.600;13.328;2023-12-20T07:55:19;78093.94;;;-145.99;100.00
2875;BME280;1445;52.600;13.328;2023-12-20T07:57:44;78098.13;;;-145.99;100.00
2875;BME280;1445;52.600;13.328;2023-12-20T08:00:09;78100.22;;;-145.99;100.00
2875;BME280;1445;52.600;13.328;2023-12-20T08:02:35;78108.63;;;-145.99;100.00
2875;BME280;1445;52.600;13.328;2023-12-20T08:05:00;78089.72;;;-145.99;100.00
2875;BME280;1445;52.600;13.328;2023-12-20T08:07:25;78085.53;;;-145.99;100.00
2875;BME280;1445;52.600;13.328;2023-12-20T08:09:51;78081.31;;;-145.99;100.00
2875;BME280;1445;52.600;13.328;2023-12-20T08:12:16;78085.53;;;-145.99;100.00
2875;BME280;1445;52.600;13.328;2023-12-20T08:14:42;78093.94;;;-145.99;100.00
2875;BME280;1445;52.600;13.328;2023-12-20T08:17:10;78079.22;;;-145.99;100.00
2875;BME280;1445;52.600;13.328;2023-12-20T08:19:35;78093.94;;;-145.99;100.00
2875;BME280;1445;52.600;13.328;2023-12-20T08:22:01;78085.53;;;-145.99;100.00
2875;BME280;1445;52.600;13.328;2023-12-20T08:24:26;78081.31;;;-145.99;100.00
2875;BME280;1445;52.600;13.328;2023-12-20T08:26:51;78077.13;;;-145.99;100.00
2875;BME280;1445;52.600;13.328;2023-12-20T08:29:17;78075.03;;;-145.99;100.00
2875;BME280;1445;52.600;13.328;2023-12-20T08:31:42;78070.81;;;-145.99;100.00
2875;BME280;1445;52.600;13.328;2023-12-20T08:34:08;78087.63;;;-145.99;100.00
2875;BME280;1445;52.600;13.328;2023-12-20T08:36:33;78072.91;;;-145.99;100.00
2875;BME280;1445;52.600;13.328;2023-12-20T08:38:58;78060.31;;;-145.99;100.00
2875;BME280;1445;52.600;13.328;2023-12-20T08:41:25;78051.91;;;-145.99;100.00
2875;BME280;1445;52.600;13.328;2023-12-20T08:43:51;78035.09;;;-145.99;100.00
2875;BME280;1445;52.600;13.328;2023-12-20T08:46:16;78043.50;;;-145.99;100.00
2875;BME280;1445;52.600;13.328;2023-12-20T08:48:41;78030.91;;;-145.99;100.00
2875;BME280;1445;52.600;13.328;2023-12-20T08:51:06;78016.22;;;-145.99;100.00
2875;BME280;1445;52.600;13.328;2023-12-20T08:53:33;78022.50;;;-145.99;100.00
2875;BME280;1445;52.600;13.328;2023-12-20T08:55:58;78012.00;;;-145.99;100.00
2875;BME280;1445;52.600;13.328;2023-12-20T08:58:26;78018.31;;;-145.99;100.00
2875;BME280;1445;52.600;13.328;2023-12-20T09:00:51;78007.81;;;-145.99;100.00
2875;BME280;1445;52.600;13.328;2023-12-20T09:03:16;78012.00;;;-145.99;100.00
2875;BME280;1445;52.600;13.328;2023-12-20T09:05:42;77991.00;;;-145.99;100.00
2875;BME280;1445;52.600;13.328;2023-12-20T09:08:07;77988.91;;;-145.99;100.00
2875;BME280;1445;52.600;13.328;2023-12-20T09:10:35;77997.31;;;-145.99;100.00
2875;BME280;1445;52.600;13.328;2023-12-20T09:13:00;77986.81;;;-145.99;100.00
2875;BME280;1445;52.600;13.328;2023-12-20T09:15:26;77982.59;;;-145.99;100.00
2875;BME280;1445;52.600;13.328;2023-12-20T09:17:51;77967.88;;;-145.99;100.00
2875;BME280;1445;52.600;13.328;2023-12-20T09:20:16;77963.69;;;-145.99;100.00
2875;BME280;1445;52.600;13.328;2023-12-20T09:22:42;77988.91;;;-145.99;100.00
2875;BME280;1445;52.600;13.328;2023-12-20T09:25:07;77961.59;;;-145.99;100.00
2875;BME280;1445;52.600;13.328;2023-12-20T09:27:33;77955.28;;;-145.99;100.00
2875;BME280;1445;52.600;13.328;2023-12-20T09:29:58;77957.38;;;-145.99;100.00
2875;BME280;1445;52.600;13.328;2023-12-20T09:32:23;77967.88;;;-145.99;100.00
2875;BME280;1445;52.600;13.328;2023-12-20T09:34:49;77963.69;;;-145.99;100.00
2875;BME280;1445;52.600;13.328;2023-12-20T09:37:14;77980.50;;;-145.99;100.00
2875;BME280;1445;52.600;13.328;2023-12-20T09:39:39;77951.09;;;-145.99;100.00
2875;BME280;1445;52.600;13.328;2023-12-20T09:42:05;77974.19;;;-145.99;100.00
2875;BME280;1445;52.600;13.328;2023-12-20T09:44:31;77978.41;;;-145.99;100.00
2875;BME280;1445;52.600;13.328;2023-12-20T09:46:57;77959.50;;;-145.99;100.00
2875;BME280;1445;52.600;13.328;2023-12-20T09:49:22;77955.28;;;-145.99;100.00
2875;BME280;1445;52.600;13.328;2023-12-20T09:51:48;77940.59;;;-145.99;100.00
2875;BME280;1445;52.600;13.328;2023-12-20T09:54:16;77942.69;;;-145.99;100.00
2875;BME280;1445;52.600;13.328;2023-12-20T09:56:41;77930.09;;;-145.99;100.00
2875;BME280;1445;52.600;13.328;2023-12-20T09:59:07;77942.69;;;-145.99;100.00
2875;BME280;1445;52.600;13.328;2023-12-20T10:01:34;77938.47;;;-145.99;100.00
2875;BME280;1445;52.600;13.328;2023-12-20T10:04:00;77930.09;;;-145.99;100.00
2875;BME280;1445;52.600;13.328;2023-12-20T10:06:26;77923.78;;;-145.99;100.00
2875;BME280;1445;52.600;13.328;2023-12-20T10:08:52;77923.78;;;-145.99;100.00
2875;BME280;1445;52.600;13.328;2023-12-20T10:11:18;77934.28;;;-145.99;100.00
2875;BME280;1445;52.600;13.328;2023-12-20T10:13:44;77913.28;;;-145.99;100.00
2875;BME280;1445;52.600;13.328;2023-12-20T10:16:12;77892.28;;;-145.99;100.00
2875;BME280;1445;52.600;13.328;2023-12-20T10:18:37;77898.56;;;-145.99;100.00
2875;BME280;1445;52.600;13.328;2023-12-20T10:21:02;77888.06;;;-145.99;100.00
2875;BME280;1445;52.600;13.328;2023-12-20T10:23:28;77877.56;;;-145.99;100.00
2875;BME280;1445;52.600;13.328;2023-12-20T10:25:57;77885.97;;;-145.99;100.00
2875;BME280;1445;52.600;13.328;2023-12-20T10:28:23;77867.06;;;-145.99;100.00
2875;BME280;1445;52.600;13.328;2023-12-20T10:30:52;77877.56;;;-145.99;100.00
2875;BME280;1445;52.600;13.328;2023-12-20T10:33:24;77875.47;;;-145.99;100.00
2875;BME280;1445;52.600;13.328;2023-12-20T10:35:50;77892.28;;;-145.99;100.00
2875;BME280;1445;52.600;13.328;2023-12-20T10:38:16;77898.56;;;-145.99;100.00
2875;BME280;1445;52.600;13.328;2023-12-20T10:40:42;77885.97;;;-145.99;100.00
2875;BME280;1445;52.600;13.328;2023-12-20T10:43:08;77860.75;;;-145.99;100.00
2875;BME280;1445;52.600;13.328;2023-12-20T10:45:33;77841.88;;;-145.99;100.00
2875;BME280;1445;52.600;13.328;2023-12-20T10:47:59;77846.06;;;-145.99;100.00
2875;BME280;1445;52.600;13.328;2023-12-20T10:50:25;77831.34;;;-145.99;100.00
2875;BME280;1445;52.600;13.328;2023-12-20T10:52:51;77825.06;;;-145.99;100.00
2875;BME280;1445;52.600;13.328;2023-12-20T10:55:20;77818.75;;;-145.99;100.00
2875;BME280;1445;52.600;13.328;2023-12-20T10:57:46;77812.47;;;-145.99;100.00
2875;BME280;1445;52.600;13.328;2023-12-20T11:00:16;77791.44;;;-145.99;100.00
2875;BME280;1445;52.600;13.328;2023-12-20T11:02:42;77791.44;;;-145.99;100.00
2875;BME280;1445;52.600;13.328;2023-12-20T11:07:44;77764.16;;;-145.99;100.00
2875;BME280;1445;52.600;13.328;2023-12-20T11:12:53;77768.34;;;-145.99;100.00
2875;BME280;1445;52.600;13.328;2023-12-20T11:15:19;77768.34;;;-145.99;100.00
2875;BME280;1445;52.600;13.328;2023-12-20T11:17:45;77774.66;;;-145.99;100.00
2875;BME280;1445;52.600;13.328;2023-12-20T11:20:13;77768.34;;;-145.99;100.00
2875;BME280;1445;52.600;13.328;2023-12-20T11:22:39;77780.94;;;-145.99;100.00
2875;BME280;1445;52.600;13.328;2023-12-20T11:25:10;77780.94;;;-145.99;100.00
2875;BME280;1445;52.600;13.328;2023-12-20T11:27:35;77778.84;;;-145.99;100.00
2875;BME280;1445;52.600;13.328;2023-12-20T11:30:03;77783.03;;;-145.99;100.00
2875;BME280;1445;52.600;13.328;2023-12-20T11:32:31;77783.03;;;-145.99;100.00
2875;BME280;1445;52.600;13.328;2023-12-20T11:34:58;77789.34;;;-145.99;100.00
2875;BME280;1445;52.600;13.328;2023-12-20T11:37:35;77791.44;;;-145.99;100.00
2875;BME280;1445;52.600;13.328;2023-12-20T11:40:22;77789.34;;;-145.99;100.00
2875;BME280;1445;52.600;13.328;2023-12-20T11:42:50;77770.44;;;-145.99;100.00
2875;BME280;1445;52.600;13.328;2023-12-20T11:45:16;77751.53;;;-145.99;100.00
2875;BME280;1445;52.600;13.328;2023-12-20T11:47:45;77749.44;;;-145.99;100.00
2875;BME280;1445;52.600;13.328;2023-12-20T11:50:11;77751.53;;;-145.99;100.00
2875;BME280;1445;52.600;13.328;2023-12-20T11:52:36;77724.25;;;-145.99;100.00
2875;BME280;1445;52.600;13.328;2023-12-20T11:55:02;77722.13;;;-145.99;100.00
2875;BME280;1445;52.600;13.328;2023-12-20T11:57:28;77724.25;;;-145.99;100.00
2875;BME280;1445;52.600;13.328;2023-12-20T11:59:53;77694.84;;;-145.99;100.00
2875;BME280;1445;52.600;13.328;2023-12-20T12:02:19;77682.22;;;-145.99;100.00
2875;BME280;1445;52.600;13.328;2023-12-20T12:04:44;77682.22;;;-145.99;100.00
2875;BME280;1445;52.600;13.328;2023-12-20T12:07:09;77673.81;;;-145.99;100.00
2875;BME280;1445;52.600;13.328;2023-12-20T12:09:35;77644.41;;;-145.99;100.00
2875;BME280;1445;52.600;13.328;2023-12-20T12:12:00;77669.63;;;-145.99;100.00
2875;BME280;1445;52.600;13.328;2023-12-20T12:14:25;77678.03;;;-145.99;100.00
2875;BME280;1445;52.600;13.328;2023-12-20T12:16:51;77680.13;;;-145.99;100.00
2875;BME280;1445;52.600;13.328;2023-12-20T12:19:24;77684.31;;;-145.99;100.00
2875;BME280;1445;52.600;13.328;2023-12-20T12:24:36;77699.03;;;-145.99;100.00
2875;BME280;1445;52.600;13.328;2023-12-20T12:27:02;77711.63;;;-145.99;100.00
2875;BME280;1445;52.600;13.328;2023-12-20T12:29:27;77711.63;;;-145.99;100.00
2875;BME280;1445;52.600;13.328;2023-12-20T12:31:52;77722.13;;;-145.99;100.00
2875;BME280;1445;52.600;13.328;2023-12-20T12:34:18;77732.63;;;-145.99;100.00
2875;BME280;1445;52.600;13.328;2023-12-20T12:36:43;77738.94;;;-145.99;100.00
2875;BME280;1445;52.600;13.328;2023-12-20T12:39:12;77759.94;;;-145.99;100.00
2875;BME280;1445;52.600;13.328;2023-12-20T12:41:37;77751.53;;;-145.99;100.00